createdAt,value
2019-05-15T00:02:00.032Z,6.75
2019-05-15T00:04:30.203Z,6.71
2019-05-15T00:07:00.442Z,5.99
2019-05-15T00:09:30.848Z,6.65
2019-05-15T00:12:01.983Z,6.59
2019-05-15T00:14:32.812Z,6.59
2019-05-15T00:17:02.836Z,6.55
2019-05-15T00:19:32.775Z,6.54
2019-05-15T00:22:03.260Z,6.51
2019-05-15T00:24:33.156Z,6.48
2019-05-15T00:27:03.173Z,6.44
2019-05-15T00:29:33.342Z,6.44
2019-05-15T00:32:03.742Z,6.39
2019-05-15T00:34:33.808Z,6.40
2019-05-15T00:37:05.199Z,6.32
2019-05-15T00:39:35.076Z,6.30
2019-05-15T00:42:05.178Z,6.27
2019-05-15T00:44:35.263Z,6.23
2019-05-15T00:47:06.069Z,6.23
2019-05-15T00:49:38.288Z,6.21
2019-05-15T00:52:12.034Z,6.15
2019-05-15T00:54:41.150Z,6.10
2019-05-15T00:57:11.217Z,6.05
2019-05-15T00:59:41.274Z,6.04
2019-05-15T01:02:12.135Z,6.03
2019-05-15T01:04:43.452Z,6.00
2019-05-15T01:07:14.404Z,5.97
2019-05-15T01:09:57.817Z,5.94
2019-05-15T01:12:29.118Z,5.90
2019-05-15T01:15:00.376Z,5.88
2019-05-15T01:17:31.810Z,5.85
2019-05-15T01:20:05.351Z,5.81
2019-05-15T01:22:35.982Z,5.79
2019-05-15T01:25:08.987Z,5.74
2019-05-15T01:27:39.807Z,5.71
2019-05-15T01:30:10.868Z,5.69
2019-05-15T01:32:40.767Z,5.67
2019-05-15T01:35:11.786Z,5.67
2019-05-15T01:37:41.964Z,5.63
2019-05-15T01:40:12.009Z,5.60
2019-05-15T01:42:42.103Z,5.58
2019-05-15T01:45:12.496Z,5.56
2019-05-15T01:47:42.695Z,5.54
2019-05-15T01:50:12.887Z,5.54
2019-05-15T01:52:42.852Z,5.51
2019-05-15T01:55:18.546Z,5.48
2019-05-15T01:57:50.171Z,5.48
2019-05-15T02:00:22.796Z,5.43
2019-05-15T02:02:55.282Z,5.40
2019-05-15T02:05:28.149Z,5.38
2019-05-15T02:07:58.600Z,5.37
2019-05-15T02:10:30.264Z,5.37
2019-05-15T02:13:00.915Z,5.33
2019-05-15T02:15:31.838Z,5.31
2019-05-15T02:18:02.795Z,5.27
2019-05-15T02:20:33.177Z,5.23
2019-05-15T02:23:03.261Z,5.20
2019-05-15T02:25:33.257Z,5.17
2019-05-15T02:28:03.391Z,5.17
2019-05-15T02:30:34.294Z,5.15
2019-05-15T02:33:04.497Z,5.14
2019-05-15T02:35:34.820Z,5.13
2019-05-15T02:38:04.997Z,5.15
2019-05-15T02:40:35.051Z,5.12
2019-05-15T02:43:05.028Z,5.08
2019-05-15T02:45:40.549Z,5.08
2019-05-15T02:48:08.918Z,5.07
2019-05-15T02:50:39.587Z,5.07
2019-05-15T02:53:10.644Z,5.05
2019-05-15T02:55:41.099Z,5.02
2019-05-15T02:58:12.201Z,5.01
2019-05-15T03:00:48.354Z,4.98
2019-05-15T03:03:14.159Z,4.98
2019-05-15T03:05:44.197Z,4.93
2019-05-15T03:08:14.297Z,4.94
2019-05-15T03:10:44.229Z,4.94
2019-05-15T03:13:14.869Z,4.92
2019-05-15T03:15:48.888Z,4.90
2019-05-15T03:18:19.371Z,4.90
2019-05-15T03:20:50.249Z,4.89
2019-05-15T03:23:20.728Z,4.86
2019-05-15T03:25:51.234Z,4.88
2019-05-15T03:28:21.320Z,4.85
2019-05-15T03:31:15.291Z,4.83
2019-05-15T03:33:28.017Z,4.83
2019-05-15T03:35:55.463Z,4.83
2019-05-15T03:38:29.210Z,4.80
2019-05-15T03:40:59.509Z,4.82
2019-05-15T03:43:29.535Z,4.83
2019-05-15T03:46:01.481Z,4.84
2019-05-15T03:48:31.504Z,4.85
2019-05-15T03:51:02.417Z,4.85
2019-05-15T03:53:32.430Z,4.86
2019-05-15T03:56:02.722Z,4.85
2019-05-15T04:01:02.208Z,4.82
2019-05-15T04:03:32.260Z,4.82
2019-05-15T04:06:02.254Z,4.78
2019-05-15T04:08:32.573Z,4.82
2019-05-15T04:11:03.084Z,4.84
2019-05-15T04:13:33.701Z,4.82
2019-05-15T04:16:03.948Z,4.83
2019-05-15T04:18:34.780Z,4.85
2019-05-15T04:21:08.880Z,4.84
2019-05-15T04:23:39.099Z,4.81
2019-05-15T04:26:11.628Z,4.84
2019-05-15T04:28:43.051Z,4.87
2019-05-15T04:31:13.143Z,4.22
2019-05-15T04:33:43.143Z,4.83
2019-05-15T04:36:14.249Z,4.85
2019-05-15T04:38:45.087Z,4.83
2019-05-15T04:41:19.475Z,4.89
2019-05-15T04:43:49.396Z,4.90
2019-05-15T04:46:20.194Z,4.92
2019-05-15T04:48:50.766Z,4.94
2019-05-15T04:51:21.338Z,5.06
2019-05-15T04:53:52.327Z,5.06
2019-05-15T04:56:22.546Z,5.14
2019-05-15T04:58:52.723Z,5.14
2019-05-15T05:01:23.062Z,5.17
2019-05-15T05:03:53.309Z,5.22
2019-05-15T05:06:23.922Z,5.17
2019-05-15T05:08:54.339Z,5.21
2019-05-15T05:11:25.615Z,5.29
2019-05-15T05:13:55.776Z,4.69
2019-05-15T05:16:25.898Z,5.34
2019-05-15T05:18:59.376Z,5.42
2019-05-15T05:21:30.127Z,5.44
2019-05-15T05:24:00.162Z,5.45
2019-05-15T05:26:31.275Z,5.57
2019-05-15T05:29:01.717Z,5.60
2019-05-15T05:31:31.907Z,5.57
2019-05-15T05:34:02.932Z,5.62
2019-05-15T05:36:34.097Z,5.57
2019-05-15T05:39:09.583Z,5.65
2019-05-15T05:41:39.290Z,5.67
2019-05-15T05:44:09.549Z,5.78
2019-05-15T05:46:39.945Z,5.87
2019-05-15T05:49:12.667Z,5.85
2019-05-15T05:51:48.103Z,6.05
2019-05-15T05:54:20.611Z,6.10
2019-05-15T05:56:50.613Z,6.14
2019-05-15T05:59:20.746Z,6.19
2019-05-15T06:01:50.777Z,5.61
2019-05-15T06:04:20.990Z,6.36
2019-05-15T06:07:06.239Z,6.37
2019-05-15T06:09:23.155Z,6.47
2019-05-15T06:11:53.150Z,6.58
2019-05-15T06:14:23.661Z,6.72
2019-05-15T06:16:53.661Z,6.81
2019-05-15T06:19:23.705Z,6.80
2019-05-15T06:22:00.212Z,6.90
2019-05-15T06:24:30.372Z,6.90
2019-05-15T06:26:58.674Z,7.03
2019-05-15T06:29:29.730Z,7.15
2019-05-15T06:31:59.999Z,7.29
2019-05-15T06:34:29.959Z,7.42
2019-05-15T06:37:00.563Z,7.43
2019-05-15T06:39:31.011Z,7.50
2019-05-15T06:42:01.036Z,7.56
2019-05-15T06:44:31.326Z,7.43
2019-05-15T06:47:01.529Z,7.48
2019-05-15T06:49:31.534Z,7.56
2019-05-15T06:52:01.540Z,7.64
2019-05-15T06:54:31.812Z,7.67
2019-05-15T06:57:01.824Z,8.14
2019-05-15T06:59:32.089Z,8.14
2019-05-15T07:02:03.795Z,8.59
2019-05-15T07:04:33.814Z,8.59
2019-05-15T07:07:04.447Z,8.89
2019-05-15T07:09:35.166Z,8.89
2019-05-15T07:12:05.350Z,9.09
2019-05-15T07:14:35.293Z,9.17
2019-05-15T07:17:05.313Z,9.37
2019-05-15T07:19:35.494Z,9.76
2019-05-15T07:22:05.722Z,10.05
2019-05-15T07:24:38.215Z,10.05
2019-05-15T07:27:08.191Z,10.21
2019-05-15T07:29:38.710Z,10.37
2019-05-15T07:32:11.641Z,10.59
2019-05-15T07:34:43.162Z,10.25
2019-05-15T07:37:14.912Z,11.02
2019-05-15T07:39:45.344Z,11.27
2019-05-15T07:42:18.489Z,11.31
2019-05-15T07:44:49.813Z,11.42
2019-05-15T07:47:22.451Z,11.60
2019-05-15T07:49:53.260Z,11.63
2019-05-15T07:52:25.221Z,11.61
2019-05-15T07:54:58.387Z,11.76
2019-05-15T07:57:30.519Z,11.90
2019-05-15T08:00:03.234Z,12.03
2019-05-15T08:02:37.792Z,12.08
2019-05-15T08:05:11.220Z,12.17
2019-05-15T08:07:42.901Z,12.24
2019-05-15T08:10:18.139Z,12.34
2019-05-15T08:12:53.336Z,12.56
2019-05-15T08:15:25.229Z,12.53
2019-05-15T08:18:05.442Z,12.62
2019-05-15T08:20:33.336Z,12.89
2019-05-15T08:23:08.353Z,13.40
2019-05-15T08:25:39.398Z,13.66
2019-05-15T08:28:10.592Z,13.72
2019-05-15T08:30:42.411Z,13.81
2019-05-15T08:33:15.150Z,13.97
2019-05-15T08:35:51.133Z,13.85
2019-05-15T08:38:18.663Z,14.14
2019-05-15T08:40:50.394Z,14.30
2019-05-15T08:43:21.353Z,14.43
2019-05-15T08:45:52.155Z,14.67
2019-05-15T08:48:27.630Z,14.91
2019-05-15T08:50:58.018Z,15.19
2019-05-15T08:53:29.226Z,15.24
2019-05-15T08:56:00.499Z,15.29
2019-05-15T08:58:31.259Z,15.34
2019-05-15T09:01:02.598Z,15.34
2019-05-15T09:03:34.150Z,15.32
2019-05-15T09:06:08.855Z,15.51
2019-05-15T09:08:39.491Z,15.67
2019-05-15T09:11:10.404Z,15.71
2019-05-15T09:13:43.592Z,15.86
2019-05-15T09:16:13.622Z,15.97
2019-05-15T09:18:45.182Z,15.54
2019-05-15T09:21:18.677Z,16.16
2019-05-15T09:23:50.328Z,15.73
2019-05-15T09:26:21.121Z,16.53
2019-05-15T09:28:54.143Z,16.46
2019-05-15T09:31:25.111Z,16.49
2019-05-15T09:33:58.624Z,16.73
2019-05-15T09:36:29.117Z,16.89
2019-05-15T09:39:00.708Z,16.84
2019-05-15T09:41:33.415Z,16.75
2019-05-15T09:44:05.398Z,17.02
2019-05-15T09:46:38.317Z,16.97
2019-05-15T09:49:08.845Z,16.76
2019-05-15T09:51:40.172Z,16.50
2019-05-15T09:54:10.662Z,16.60
2019-05-15T09:56:41.356Z,16.79
2019-05-15T09:59:11.939Z,16.83
2019-05-15T10:01:42.270Z,17.04
2019-05-15T10:04:13.964Z,17.32
2019-05-15T10:06:44.905Z,17.36
2019-05-15T10:09:18.965Z,17.44
2019-05-15T10:11:49.414Z,17.64
2019-05-15T10:14:19.735Z,17.87
2019-05-15T10:16:53.189Z,18.04
2019-05-15T10:19:24.581Z,17.96
2019-05-15T10:21:54.828Z,18.08
2019-05-15T10:24:27.985Z,17.74
2019-05-15T10:26:58.133Z,17.79
2019-05-15T10:29:31.226Z,17.60
2019-05-15T10:32:02.505Z,17.18
2019-05-15T10:34:35.804Z,17.40
2019-05-15T10:37:08.405Z,17.22
2019-05-15T10:39:38.870Z,17.30
2019-05-15T10:42:09.041Z,17.32
2019-05-15T10:44:39.431Z,17.26
2019-05-15T10:47:09.553Z,17.26
2019-05-15T10:49:40.622Z,17.36
2019-05-15T10:52:11.632Z,17.36
2019-05-15T10:54:41.792Z,17.37
2019-05-15T10:57:12.266Z,17.43
2019-05-15T10:59:42.586Z,17.34
2019-05-15T11:02:12.777Z,17.29
2019-05-15T11:04:43.469Z,17.21
2019-05-15T11:07:13.534Z,17.05
2019-05-15T11:09:44.114Z,17.05
2019-05-15T11:12:15.053Z,16.60
2019-05-15T11:14:45.455Z,16.28
2019-05-15T11:17:21.692Z,16.18
2019-05-15T11:19:51.779Z,16.27
2019-05-15T11:22:21.846Z,15.97
2019-05-15T11:24:53.079Z,16.07
2019-05-15T11:27:23.719Z,15.99
2019-05-15T11:29:54.074Z,16.25
2019-05-15T11:32:24.988Z,16.11
2019-05-15T11:34:59.770Z,16.07
2019-05-15T11:37:29.924Z,15.86
2019-05-15T11:40:00.082Z,15.42
2019-05-15T11:42:30.604Z,15.48
2019-05-15T11:45:02.821Z,15.36
2019-05-15T11:47:33.200Z,15.20
2019-05-15T11:50:03.596Z,15.28
2019-05-15T11:52:36.589Z,15.35
2019-05-15T11:55:08.375Z,15.36
2019-05-15T11:57:46.936Z,15.53
2019-05-15T12:00:22.002Z,15.78
2019-05-15T12:02:51.567Z,15.75
2019-05-15T12:05:22.610Z,15.96
2019-05-15T12:07:53.993Z,16.08
2019-05-15T12:10:24.967Z,16.27
2019-05-15T12:12:56.159Z,16.56
2019-05-15T12:15:29.282Z,16.74
2019-05-15T12:18:02.868Z,16.95
2019-05-15T12:20:33.404Z,17.07
2019-05-15T12:23:03.819Z,17.27
2019-05-15T12:25:33.863Z,17.30
2019-05-15T12:28:04.162Z,17.58
2019-05-15T12:30:34.777Z,17.80
2019-05-15T12:33:05.047Z,18.13
2019-05-15T12:35:35.306Z,18.17
2019-05-15T12:38:08.858Z,18.17
2019-05-15T13:00:59.735Z,17.42
2019-05-15T13:03:30.800Z,17.41
2019-05-15T13:06:03.272Z,17.50
2019-05-15T13:08:34.166Z,17.51
2019-05-15T13:11:15.249Z,17.57
2019-05-15T13:13:48.450Z,17.70
2019-05-15T13:16:20.142Z,17.87
2019-05-15T13:18:54.266Z,17.98
2019-05-15T13:21:24.723Z,18.22
2019-05-15T13:23:58.656Z,18.20
2019-05-15T13:26:28.085Z,17.97
2019-05-15T13:28:58.621Z,17.57
2019-05-15T13:31:29.975Z,18.44
2019-05-15T13:34:03.951Z,18.63
2019-05-15T13:36:39.240Z,18.65
2019-05-15T13:39:10.282Z,18.89
2019-05-15T13:41:42.177Z,18.96
2019-05-15T13:44:13.129Z,18.45
2019-05-15T13:46:44.755Z,18.85
2019-05-15T13:51:49.063Z,18.92
2019-05-15T13:54:29.172Z,18.85
2019-05-15T13:57:00.445Z,18.72
2019-05-15T13:59:30.882Z,18.48
2019-05-15T14:02:11.719Z,18.30
2019-05-15T14:04:42.037Z,18.01
2019-05-15T14:07:12.025Z,17.91
2019-05-15T14:09:44.355Z,17.87
2019-05-15T14:12:14.088Z,17.78
2019-05-15T14:14:44.640Z,17.72
2019-05-15T14:17:15.201Z,17.09
2019-05-15T14:19:45.750Z,17.38
2019-05-15T14:22:16.082Z,17.31
2019-05-15T14:24:48.750Z,17.14
2019-05-15T14:27:22.240Z,17.02
2019-05-15T14:29:58.154Z,16.79
2019-05-15T14:32:38.229Z,16.76
2019-05-15T14:35:01.743Z,16.58
2019-05-15T14:37:32.630Z,16.59
2019-05-15T14:40:09.244Z,16.66
2019-05-15T14:42:41.449Z,16.80
2019-05-15T14:45:12.606Z,16.88
2019-05-15T14:47:44.161Z,16.88
2019-05-15T14:50:14.919Z,16.92
2019-05-15T14:52:47.982Z,16.93
2019-05-15T14:55:18.157Z,17.05
2019-05-15T14:57:48.937Z,17.16
2019-05-15T15:00:20.459Z,17.21
2019-05-15T15:02:53.740Z,17.32
2019-05-15T15:05:27.386Z,17.40
2019-05-15T15:08:17.073Z,17.28
2019-05-15T15:10:35.006Z,17.29
2019-05-15T15:13:13.302Z,17.35
2019-05-15T15:15:53.133Z,17.29
2019-05-15T15:18:28.115Z,17.17
2019-05-15T15:21:12.298Z,17.03
2019-05-15T15:23:48.105Z,16.98
2019-05-15T15:26:23.689Z,16.99
2019-05-15T15:28:54.595Z,16.71
2019-05-15T15:31:28.873Z,16.87
2019-05-15T15:34:14.437Z,16.85
2019-05-15T15:36:53.849Z,16.74
2019-05-15T15:39:29.598Z,16.59
2019-05-15T15:42:08.520Z,16.34
2019-05-15T15:45:13.391Z,16.29
2019-05-15T15:48:00.798Z,16.33
2019-05-15T15:50:54.215Z,16.41
2019-05-15T15:53:28.612Z,15.95
2019-05-15T15:56:01.871Z,16.30
2019-05-15T15:58:37.944Z,15.89
2019-05-15T16:01:14.689Z,16.05
2019-05-15T16:03:48.585Z,15.38
2019-05-15T16:06:23.304Z,16.00
2019-05-15T16:08:59.394Z,16.03
2019-05-15T16:11:32.394Z,16.04
2019-05-15T16:14:04.818Z,15.98
2019-05-15T16:16:38.032Z,15.97
2019-05-15T16:19:08.223Z,15.95
2019-05-15T16:21:39.379Z,15.95
2019-05-15T16:24:17.297Z,15.93
2019-05-15T16:26:43.003Z,15.96
2019-05-15T16:29:14.959Z,15.91
2019-05-15T16:31:45.660Z,15.97
2019-05-15T16:34:18.675Z,15.95
2019-05-15T16:36:49.584Z,15.96
2019-05-15T16:39:20.241Z,15.97
2019-05-15T16:41:50.421Z,16.02
2019-05-15T16:44:20.765Z,16.06
2019-05-15T16:46:51.084Z,16.08
2019-05-15T16:49:21.343Z,16.09
2019-05-15T16:51:53.151Z,16.17
2019-05-15T16:54:23.516Z,16.13
2019-05-15T16:56:53.998Z,16.07
2019-05-15T16:59:24.861Z,16.03
2019-05-15T17:01:55.468Z,15.96
2019-05-15T17:04:28.872Z,15.96
2019-05-15T17:06:59.173Z,15.81
2019-05-15T17:09:30.162Z,15.73
2019-05-15T17:12:00.928Z,15.64
2019-05-15T17:14:32.621Z,15.61
2019-05-15T17:17:04.325Z,15.58
2019-05-15T17:19:35.561Z,15.54
2019-05-15T17:22:09.987Z,15.48
2019-05-15T17:24:43.597Z,15.40
2019-05-15T17:27:20.208Z,15.32
2019-05-15T17:29:58.443Z,15.24
2019-05-15T17:32:30.683Z,15.22
2019-05-15T17:35:01.216Z,15.10
2019-05-15T17:37:31.804Z,15.06
2019-05-15T17:40:02.595Z,15.10
2019-05-15T17:42:33.703Z,15.12
2019-05-15T17:45:08.698Z,15.12
2019-05-15T17:47:40.586Z,15.15
2019-05-15T17:50:14.037Z,15.15
2019-05-15T17:52:46.007Z,15.18
2019-05-15T17:55:18.728Z,15.19
2019-05-15T17:57:56.610Z,15.11
2019-05-15T18:00:28.678Z,15.04
2019-05-15T18:02:59.131Z,14.95
2019-05-15T18:05:30.866Z,14.91
2019-05-15T18:08:01.865Z,14.87
2019-05-15T18:10:32.053Z,14.77
2019-05-15T18:13:03.492Z,14.73
2019-05-15T18:15:33.762Z,14.69
2019-05-15T18:18:08.859Z,14.61
2019-05-15T18:20:38.406Z,14.51
2019-05-15T18:23:10.998Z,14.45
2019-05-15T18:25:42.576Z,14.40
2019-05-15T18:28:13.819Z,14.33
2019-05-15T18:30:45.049Z,14.34
2019-05-15T18:33:15.804Z,14.28
2019-05-15T18:35:48.507Z,14.25
2019-05-15T18:38:19.123Z,14.22
2019-05-15T18:40:49.956Z,14.17
2019-05-15T18:43:21.177Z,14.13
2019-05-15T18:45:51.819Z,14.09
2019-05-15T18:48:22.579Z,14.05
2019-05-15T18:50:52.538Z,13.46
2019-05-15T18:53:22.875Z,14.01
2019-05-15T18:55:52.964Z,13.97
2019-05-15T18:58:23.147Z,13.95
2019-05-15T19:00:54.466Z,13.93
2019-05-15T19:03:24.795Z,13.91
2019-05-15T19:05:55.202Z,13.92
2019-05-15T19:08:25.614Z,13.90
2019-05-15T19:10:58.514Z,13.89
2019-05-15T19:13:29.876Z,13.83
2019-05-15T19:16:00.928Z,13.80
2019-05-15T19:18:31.587Z,13.79
2019-05-15T19:21:01.634Z,13.79
2019-05-15T19:23:32.107Z,13.74
2019-05-15T19:26:02.410Z,13.70
2019-05-15T19:28:32.956Z,13.70
2019-05-15T19:31:03.426Z,13.64
2019-05-15T19:33:37.409Z,13.61
2019-05-15T19:36:07.738Z,13.59
2019-05-15T19:38:38.148Z,13.56
2019-05-15T19:41:10.194Z,13.54
2019-05-15T19:43:44.913Z,13.46
2019-05-15T19:46:18.880Z,13.43
2019-05-15T19:48:49.264Z,13.39
2019-05-15T19:51:19.795Z,13.37
2019-05-15T19:53:50.955Z,13.36
2019-05-15T19:56:20.910Z,13.33
2019-05-15T20:09:25.079Z,13.00
2019-05-15T20:11:55.855Z,12.91
2019-05-15T20:14:28.690Z,12.83
2019-05-15T20:16:58.960Z,12.74
2019-05-15T20:19:29.533Z,12.61
2019-05-15T20:22:00.007Z,12.73
2019-05-15T20:24:32.378Z,12.72
2019-05-15T20:27:03.428Z,12.68
2019-05-15T20:29:37.931Z,12.68
2019-05-15T20:32:10.382Z,12.68
2019-05-15T20:34:41.688Z,12.67
2019-05-15T20:37:12.684Z,12.72
2019-05-15T20:39:43.982Z,12.72
2019-05-15T20:42:14.019Z,12.64
2019-05-15T20:44:45.087Z,12.66
2019-05-15T20:47:15.813Z,12.71
2019-05-15T20:49:48.557Z,12.74
2019-05-15T20:52:21.768Z,12.78
2019-05-15T20:54:51.784Z,12.79
2019-05-15T20:57:22.469Z,12.24
2019-05-15T21:00:00.422Z,12.84
2019-05-15T21:02:31.076Z,12.81
2019-05-15T21:05:01.715Z,12.83
2019-05-15T21:07:38.687Z,12.80
2019-05-15T21:10:03.426Z,12.76
2019-05-15T21:12:33.512Z,12.79
2019-05-15T21:15:04.304Z,12.82
2019-05-15T21:17:34.469Z,12.82
2019-05-15T21:20:05.509Z,12.78
2019-05-15T21:22:35.721Z,12.79
2019-05-15T21:25:08.094Z,12.74
2019-05-15T21:27:42.464Z,12.70
2019-05-15T21:30:09.999Z,12.72
2019-05-15T21:32:39.854Z,12.69
2019-05-15T21:35:10.094Z,12.65
2019-05-15T21:37:40.567Z,12.64
2019-05-15T21:40:11.008Z,12.62
2019-05-15T21:42:41.785Z,12.56
2019-05-15T21:45:14.776Z,12.53
2019-05-15T21:47:45.185Z,12.53
2019-05-15T21:50:15.950Z,12.50
2019-05-15T21:52:46.065Z,12.45
2019-05-15T21:55:18.588Z,12.47
2019-05-15T21:57:47.902Z,12.44
2019-05-15T22:00:28.915Z,12.44
2019-05-15T22:02:59.165Z,12.47
2019-05-15T22:05:29.661Z,12.40
2019-05-15T22:08:00.327Z,12.37
2019-05-15T22:10:30.611Z,12.37
2019-05-15T22:13:01.106Z,12.34
2019-05-15T22:15:31.174Z,12.32
2019-05-15T22:18:01.784Z,12.30
2019-05-15T22:20:32.501Z,12.04
2019-05-15T22:23:02.767Z,12.26
2019-05-15T22:25:32.948Z,12.26
2019-05-15T22:28:03.319Z,12.25
2019-05-15T22:30:33.429Z,12.22
2019-05-15T22:33:03.334Z,12.19
2019-05-15T22:35:33.440Z,12.19
2019-05-15T22:38:03.651Z,12.18
2019-05-15T22:40:33.617Z,12.19
2019-05-15T22:43:03.632Z,12.14
2019-05-15T22:45:33.616Z,12.15
2019-05-15T22:48:03.780Z,12.14
2019-05-15T22:50:33.842Z,12.12
2019-05-15T22:53:04.015Z,12.08
2019-05-15T22:55:34.172Z,12.11
2019-05-15T22:58:04.372Z,12.11
2019-05-15T23:00:34.599Z,12.06
2019-05-15T23:03:04.685Z,12.05
2019-05-15T23:05:34.725Z,12.02
2019-05-15T23:08:04.899Z,11.96
2019-05-15T23:10:35.044Z,12.00
2019-05-15T23:13:05.212Z,11.98
2019-05-15T23:15:38.496Z,11.96
2019-05-15T23:18:08.557Z,11.96
2019-05-15T23:20:39.029Z,11.95
2019-05-15T23:23:09.138Z,11.96
2019-05-15T23:25:39.393Z,11.92
2019-05-15T23:28:09.374Z,11.89
2019-05-15T23:30:39.338Z,11.80
2019-05-15T23:33:09.188Z,11.78
2019-05-15T23:35:41.627Z,11.73
2019-05-15T23:38:11.539Z,11.71
2019-05-15T23:40:41.452Z,11.70
2019-05-15T23:43:11.538Z,11.69
2019-05-15T23:45:41.672Z,11.71
2019-05-15T23:48:11.490Z,11.72
2019-05-15T23:50:41.439Z,11.71
2019-05-15T23:53:11.461Z,11.72
2019-05-15T23:55:41.376Z,11.71
2019-05-15T23:58:11.360Z,11.68
